sensor_id;sensor_type;location;lat;lon;timestamp;P1;durP1;ratioP1;P2;durP2;ratioP2
20140;SDS011;10231;47.702;9.826;2022-11-10T00:00:31;17.60;;;15.03;;
20140;SDS011;10231;47.702;9.826;2022-11-10T00:03:01;16.67;;;14.97;;
20140;SDS011;10231;47.702;9.826;2022-11-10T00:05:28;18.77;;;16.70;;
20140;SDS011;10231;47.702;9.826;2022-11-10T00:07:54;19.00;;;16.73;;
20140;SDS011;10231;47.702;9.826;2022-11-10T00:10:20;17.63;;;15.90;;
20140;SDS011;10231;47.702;9.826;2022-11-10T00:12:46;20.20;;;16.87;;
20140;SDS011;10231;47.702;9.826;2022-11-10T00:15:11;22.07;;;17.30;;
20140;SDS011;10231;47.702;9.826;2022-11-10T00:17:55;20.20;;;17.63;;
20140;SDS011;10231;47.702;9.826;2022-11-10T00:20:21;21.57;;;17.90;;
20140;SDS011;10231;47.702;9.826;2022-11-10T00:22:46;20.17;;;17.27;;
20140;SDS011;10231;47.702;9.826;2022-11-10T00:25:12;19.53;;;17.23;;
20140;SDS011;10231;47.702;9.826;2022-11-10T00:27:38;18.53;;;16.63;;
20140;SDS011;10231;47.702;9.826;2022-11-10T00:30:04;19.07;;;17.17;;
20140;SDS011;10231;47.702;9.826;2022-11-10T00:32:30;20.27;;;18.17;;
20140;SDS011;10231;47.702;9.826;2022-11-10T00:34:56;20.30;;;18.20;;
20140;SDS011;10231;47.702;9.826;2022-11-10T00:37:22;20.07;;;18.00;;
20140;SDS011;10231;47.702;9.826;2022-11-10T00:39:47;19.53;;;17.47;;
20140;SDS011;10231;47.702;9.826;2022-11-10T00:42:13;20.37;;;17.17;;
20140;SDS011;10231;47.702;9.826;2022-11-10T00:44:39;20.80;;;18.60;;
20140;SDS011;10231;47.702;9.826;2022-11-10T00:47:04;19.83;;;16.63;;
20140;SDS011;10231;47.702;9.826;2022-11-10T00:49:30;20.67;;;17.70;;
20140;SDS011;10231;47.702;9.826;2022-11-10T00:51:56;20.57;;;17.47;;
20140;SDS011;10231;47.702;9.826;2022-11-10T00:54:21;19.03;;;17.10;;
20140;SDS011;10231;47.702;9.826;2022-11-10T00:56:47;20.43;;;17.73;;
20140;SDS011;10231;47.702;9.826;2022-11-10T00:59:12;19.33;;;17.07;;
20140;SDS011;10231;47.702;9.826;2022-11-10T01:01:38;20.17;;;17.33;;
20140;SDS011;10231;47.702;9.826;2022-11-10T01:04:04;19.90;;;17.80;;
20140;SDS011;10231;47.702;9.826;2022-11-10T01:06:29;18.80;;;16.80;;
20140;SDS011;10231;47.702;9.826;2022-11-10T01:08:55;17.80;;;15.97;;
20140;SDS011;10231;47.702;9.826;2022-11-10T01:11:22;18.23;;;16.27;;
20140;SDS011;10231;47.702;9.826;2022-11-10T01:13:50;19.37;;;16.77;;
20140;SDS011;10231;47.702;9.826;2022-11-10T01:16:21;19.30;;;17.00;;
20140;SDS011;10231;47.702;9.826;2022-11-10T01:18:53;18.97;;;16.63;;
20140;SDS011;10231;47.702;9.826;2022-11-10T01:21:20;20.23;;;17.13;;
20140;SDS011;10231;47.702;9.826;2022-11-10T01:23:47;18.20;;;16.23;;
20140;SDS011;10231;47.702;9.826;2022-11-10T01:26:13;18.97;;;16.77;;
20140;SDS011;10231;47.702;9.826;2022-11-10T01:28:40;18.20;;;15.33;;
20140;SDS011;10231;47.702;9.826;2022-11-10T01:31:07;18.53;;;16.63;;
20140;SDS011;10231;47.702;9.826;2022-11-10T01:33:38;18.53;;;16.23;;
20140;SDS011;10231;47.702;9.826;2022-11-10T01:36:04;18.60;;;16.70;;
20140;SDS011;10231;47.702;9.826;2022-11-10T01:38:32;18.80;;;15.93;;
20140;SDS011;10231;47.702;9.826;2022-11-10T01:41:00;17.10;;;15.30;;
20140;SDS011;10231;47.702;9.826;2022-11-10T01:43:26;18.00;;;15.93;;
20140;SDS011;10231;47.702;9.826;2022-11-10T01:45:53;18.40;;;16.17;;
20140;SDS011;10231;47.702;9.826;2022-11-10T01:51:20;16.90;;;15.07;;
20140;SDS011;10231;47.702;9.826;2022-11-10T01:53:54;17.37;;;15.33;;
20140;SDS011;10231;47.702;9.826;2022-11-10T01:56:27;17.53;;;15.53;;
20140;SDS011;10231;47.702;9.826;2022-11-10T01:58:57;15.93;;;14.17;;
20140;SDS011;10231;47.702;9.826;2022-11-10T02:01:26;15.80;;;13.40;;
20140;SDS011;10231;47.702;9.826;2022-11-10T02:03:56;15.43;;;12.97;;
20140;SDS011;10231;47.702;9.826;2022-11-10T02:06:26;14.33;;;12.80;;
20140;SDS011;10231;47.702;9.826;2022-11-10T02:08:54;12.50;;;11.20;;
20140;SDS011;10231;47.702;9.826;2022-11-10T02:11:22;14.10;;;12.80;;
20140;SDS011;10231;47.702;9.826;2022-11-10T02:13:48;12.57;;;11.10;;
20140;SDS011;10231;47.702;9.826;2022-11-10T02:16:15;11.43;;;10.33;;
20140;SDS011;10231;47.702;9.826;2022-11-10T02:18:41;10.83;;;9.73;;
20140;SDS011;10231;47.702;9.826;2022-11-10T02:21:07;9.03;;;8.13;;
20140;SDS011;10231;47.702;9.826;2022-11-10T02:25:59;7.73;;;6.93;;
20140;SDS011;10231;47.702;9.826;2022-11-10T02:28:26;6.53;;;5.93;;
20140;SDS011;10231;47.702;9.826;2022-11-10T02:30:52;5.80;;;5.07;;
20140;SDS011;10231;47.702;9.826;2022-11-10T02:33:18;4.30;;;3.90;;
20140;SDS011;10231;47.702;9.826;2022-11-10T02:35:45;4.43;;;4.00;;
20140;SDS011;10231;47.702;9.826;2022-11-10T02:38:11;4.77;;;4.10;;
20140;SDS011;10231;47.702;9.826;2022-11-10T02:40:37;3.80;;;3.50;;
20140;SDS011;10231;47.702;9.826;2022-11-10T02:43:03;3.90;;;3.60;;
20140;SDS011;10231;47.702;9.826;2022-11-10T02:45:30;3.00;;;2.80;;
20140;SDS011;10231;47.702;9.826;2022-11-10T02:47:56;3.63;;;2.43;;
20140;SDS011;10231;47.702;9.826;2022-11-10T02:50:22;2.87;;;2.67;;
20140;SDS011;10231;47.702;9.826;2022-11-10T02:52:47;2.10;;;2.00;;
20140;SDS011;10231;47.702;9.826;2022-11-10T02:55:13;2.03;;;1.70;;
20140;SDS011;10231;47.702;9.826;2022-11-10T02:57:39;2.47;;;1.53;;
20140;SDS011;10231;47.702;9.826;2022-11-10T03:00:05;1.70;;;1.60;;
20140;SDS011;10231;47.702;9.826;2022-11-10T03:02:31;2.20;;;2.00;;
20140;SDS011;10231;47.702;9.826;2022-11-10T03:04:57;2.10;;;1.90;;
20140;SDS011;10231;47.702;9.826;2022-11-10T03:07:23;2.27;;;1.93;;
20140;SDS011;10231;47.702;9.826;2022-11-10T03:09:48;3.00;;;1.90;;
20140;SDS011;10231;47.702;9.826;2022-11-10T03:12:14;4.33;;;2.33;;
20140;SDS011;10231;47.702;9.826;2022-11-10T03:14:40;3.00;;;1.80;;
20140;SDS011;10231;47.702;9.826;2022-11-10T03:17:06;2.43;;;1.60;;
20140;SDS011;10231;47.702;9.826;2022-11-10T03:19:32;1.80;;;1.70;;
20140;SDS011;10231;47.702;9.826;2022-11-10T03:21:57;1.77;;;1.67;;
20140;SDS011;10231;47.702;9.826;2022-11-10T03:24:23;2.47;;;1.70;;
20140;SDS011;10231;47.702;9.826;2022-11-10T03:26:48;2.93;;;1.60;;
20140;SDS011;10231;47.702;9.826;2022-11-10T03:29:14;2.40;;;1.50;;
20140;SDS011;10231;47.702;9.826;2022-11-10T03:31:40;1.57;;;1.50;;
20140;SDS011;10231;47.702;9.826;2022-11-10T03:34:05;2.13;;;1.70;;
20140;SDS011;10231;47.702;9.826;2022-11-10T03:36:31;2.30;;;2.10;;
20140;SDS011;10231;47.702;9.826;2022-11-10T03:38:57;2.37;;;2.10;;
20140;SDS011;10231;47.702;9.826;2022-11-10T03:41:22;2.17;;;2.03;;
20140;SDS011;10231;47.702;9.826;2022-11-10T03:43:49;2.53;;;2.33;;
20140;SDS011;10231;47.702;9.826;2022-11-10T03:46:15;2.23;;;2.00;;
20140;SDS011;10231;47.702;9.826;2022-11-10T03:48:41;2.47;;;2.23;;
20140;SDS011;10231;47.702;9.826;2022-11-10T03:51:07;2.43;;;2.20;;
20140;SDS011;10231;47.702;9.826;2022-11-10T03:53:32;3.00;;;2.30;;
20140;SDS011;10231;47.702;9.826;2022-11-10T03:56:02;2.37;;;1.80;;
20140;SDS011;10231;47.702;9.826;2022-11-10T03:58:29;2.43;;;2.20;;
20140;SDS011;10231;47.702;9.826;2022-11-10T04:00:54;2.87;;;2.33;;
20140;SDS011;10231;47.702;9.826;2022-11-10T04:03:20;2.10;;;1.57;;
20140;SDS011;10231;47.702;9.826;2022-11-10T04:05:47;2.93;;;1.63;;
20140;SDS011;10231;47.702;9.826;2022-11-10T04:08:31;1.70;;;1.60;;
20140;SDS011;10231;47.702;9.826;2022-11-10T04:11:15;1.90;;;1.80;;
20140;SDS011;10231;47.702;9.826;2022-11-10T04:14:01;3.53;;;1.90;;
20140;SDS011;10231;47.702;9.826;2022-11-10T04:16:45;1.80;;;1.70;;
20140;SDS011;10231;47.702;9.826;2022-11-10T04:19:10;1.80;;;1.23;;
20140;SDS011;10231;47.702;9.826;2022-11-10T04:21:36;1.73;;;1.63;;
20140;SDS011;10231;47.702;9.826;2022-11-10T04:24:01;1.60;;;1.50;;
20140;SDS011;10231;47.702;9.826;2022-11-10T04:26:27;3.27;;;1.70;;
20140;SDS011;10231;47.702;9.826;2022-11-10T04:28:57;2.63;;;2.27;;
20140;SDS011;10231;47.702;9.826;2022-11-10T04:31:24;1.93;;;1.33;;
20140;SDS011;10231;47.702;9.826;2022-11-10T04:33:51;1.90;;;1.80;;
20140;SDS011;10231;47.702;9.826;2022-11-10T04:36:19;2.03;;;1.30;;
20140;SDS011;10231;47.702;9.826;2022-11-10T04:38:47;1.83;;;1.73;;
20140;SDS011;10231;47.702;9.826;2022-11-10T04:41:13;2.00;;;1.90;;
20140;SDS011;10231;47.702;9.826;2022-11-10T04:43:39;2.97;;;1.80;;
20140;SDS011;10231;47.702;9.826;2022-11-10T04:46:05;2.40;;;2.20;;
20140;SDS011;10231;47.702;9.826;2022-11-10T04:48:32;3.60;;;2.80;;
20140;SDS011;10231;47.702;9.826;2022-11-10T04:51:04;2.47;;;2.27;;
20140;SDS011;10231;47.702;9.826;2022-11-10T04:53:31;2.60;;;2.40;;
20140;SDS011;10231;47.702;9.826;2022-11-10T04:55:56;3.43;;;2.93;;
20140;SDS011;10231;47.702;9.826;2022-11-10T04:58:22;4.10;;;3.63;;
20140;SDS011;10231;47.702;9.826;2022-11-10T05:00:48;2.90;;;2.80;;
20140;SDS011;10231;47.702;9.826;2022-11-10T05:03:13;3.20;;;2.70;;
20140;SDS011;10231;47.702;9.826;2022-11-10T05:05:39;4.57;;;4.17;;
20140;SDS011;10231;47.702;9.826;2022-11-10T05:08:06;3.40;;;3.20;;
20140;SDS011;10231;47.702;9.826;2022-11-10T05:10:33;4.03;;;3.63;;
20140;SDS011;10231;47.702;9.826;2022-11-10T05:13:00;4.53;;;4.13;;
20140;SDS011;10231;47.702;9.826;2022-11-10T05:15:27;3.83;;;3.50;;
20140;SDS011;10231;47.702;9.826;2022-11-10T05:17:53;3.33;;;3.03;;
20140;SDS011;10231;47.702;9.826;2022-11-10T05:20:20;3.90;;;3.30;;
20140;SDS011;10231;47.702;9.826;2022-11-10T05:22:48;3.50;;;3.20;;
20140;SDS011;10231;47.702;9.826;2022-11-10T05:25:33;3.10;;;2.80;;
20140;SDS011;10231;47.702;9.826;2022-11-10T05:28:01;3.43;;;3.20;;
20140;SDS011;10231;47.702;9.826;2022-11-10T05:30:28;2.73;;;2.53;;
20140;SDS011;10231;47.702;9.826;2022-11-10T05:32:53;2.73;;;2.53;;
20140;SDS011;10231;47.702;9.826;2022-11-10T05:35:19;3.20;;;2.90;;
20140;SDS011;10231;47.702;9.826;2022-11-10T05:37:45;3.97;;;3.17;;
20140;SDS011;10231;47.702;9.826;2022-11-10T05:40:11;3.07;;;2.87;;
20140;SDS011;10231;47.702;9.826;2022-11-10T05:42:47;2.60;;;2.50;;
20140;SDS011;10231;47.702;9.826;2022-11-10T05:45:16;3.10;;;2.90;;
20140;SDS011;10231;47.702;9.826;2022-11-10T05:47:42;3.20;;;3.00;;
20140;SDS011;10231;47.702;9.826;2022-11-10T05:50:08;4.00;;;3.57;;
20140;SDS011;10231;47.702;9.826;2022-11-10T05:52:34;3.93;;;3.63;;
20140;SDS011;10231;47.702;9.826;2022-11-10T05:55:03;4.93;;;3.73;;
20140;SDS011;10231;47.702;9.826;2022-11-10T05:57:29;4.67;;;3.33;;
20140;SDS011;10231;47.702;9.826;2022-11-10T05:59:54;15.93;;;3.87;;
20140;SDS011;10231;47.702;9.826;2022-11-10T06:02:20;5.03;;;3.70;;
20140;SDS011;10231;47.702;9.826;2022-11-10T06:04:46;11.00;;;3.60;;
20140;SDS011;10231;47.702;9.826;2022-11-10T06:07:11;12.20;;;3.70;;
20140;SDS011;10231;47.702;9.826;2022-11-10T06:09:37;12.83;;;4.53;;
20140;SDS011;10231;47.702;9.826;2022-11-10T06:12:03;28.97;;;5.23;;
20140;SDS011;10231;47.702;9.826;2022-11-10T06:14:28;22.40;;;4.90;;
20140;SDS011;10231;47.702;9.826;2022-11-10T06:16:54;18.20;;;4.60;;
20140;SDS011;10231;47.702;9.826;2022-11-10T06:19:19;8.43;;;3.80;;
20140;SDS011;10231;47.702;9.826;2022-11-10T06:21:45;6.73;;;4.00;;
20140;SDS011;10231;47.702;9.826;2022-11-10T06:24:11;6.17;;;4.10;;
20140;SDS011;10231;47.702;9.826;2022-11-10T06:26:36;5.00;;;4.23;;
20140;SDS011;10231;47.702;9.826;2022-11-10T06:29:02;8.07;;;5.50;;
20140;SDS011;10231;47.702;9.826;2022-11-10T06:31:28;14.57;;;4.93;;
20140;SDS011;10231;47.702;9.826;2022-11-10T06:33:53;20.27;;;4.70;;
20140;SDS011;10231;47.702;9.826;2022-11-10T06:36:19;6.60;;;3.93;;
20140;SDS011;10231;47.702;9.826;2022-11-10T06:38:45;14.83;;;3.83;;
20140;SDS011;10231;47.702;9.826;2022-11-10T06:41:11;13.53;;;4.03;;
20140;SDS011;10231;47.702;9.826;2022-11-10T06:43:37;5.50;;;3.40;;
20140;SDS011;10231;47.702;9.826;2022-11-10T06:46:02;10.77;;;3.43;;
20140;SDS011;10231;47.702;9.826;2022-11-10T06:48:28;7.60;;;3.50;;
20140;SDS011;10231;47.702;9.826;2022-11-10T06:50:53;11.33;;;2.83;;
20140;SDS011;10231;47.702;9.826;2022-11-10T06:53:19;3.50;;;2.70;;
20140;SDS011;10231;47.702;9.826;2022-11-10T06:55:45;5.03;;;2.70;;
20140;SDS011;10231;47.702;9.826;2022-11-10T06:58:10;8.23;;;3.27;;
20140;SDS011;10231;47.702;9.826;2022-11-10T07:00:36;10.57;;;3.07;;
20140;SDS011;10231;47.702;9.826;2022-11-10T07:03:03;5.37;;;3.07;;
20140;SDS011;10231;47.702;9.826;2022-11-10T07:05:31;9.73;;;2.97;;
20140;SDS011;10231;47.702;9.826;2022-11-10T07:08:04;15.93;;;3.57;;
20140;SDS011;10231;47.702;9.826;2022-11-10T07:10:32;13.13;;;2.87;;
20140;SDS011;10231;47.702;9.826;2022-11-10T07:12:59;3.10;;;2.83;;
20140;SDS011;10231;47.702;9.826;2022-11-10T07:15:26;5.60;;;3.23;;
20140;SDS011;10231;47.702;9.826;2022-11-10T07:17:52;3.90;;;2.70;;
20140;SDS011;10231;47.702;9.826;2022-11-10T07:20:18;2.43;;;2.23;;
20140;SDS011;10231;47.702;9.826;2022-11-10T07:22:43;2.97;;;2.60;;
20140;SDS011;10231;47.702;9.826;2022-11-10T07:25:09;3.40;;;2.10;;
20140;SDS011;10231;47.702;9.826;2022-11-10T07:27:35;3.23;;;2.30;;
20140;SDS011;10231;47.702;9.826;2022-11-10T07:30:01;4.47;;;2.40;;
20140;SDS011;10231;47.702;9.826;2022-11-10T07:32:27;7.20;;;3.07;;
20140;SDS011;10231;47.702;9.826;2022-11-10T07:34:56;6.67;;;3.60;;
20140;SDS011;10231;47.702;9.826;2022-11-10T07:37:21;3.77;;;3.20;;
20140;SDS011;10231;47.702;9.826;2022-11-10T07:39:47;3.07;;;2.77;;
20140;SDS011;10231;47.702;9.826;2022-11-10T07:42:12;4.03;;;3.37;;
20140;SDS011;10231;47.702;9.826;2022-11-10T07:44:38;4.67;;;4.20;;
20140;SDS011;10231;47.702;9.826;2022-11-10T07:47:04;6.17;;;5.57;;
20140;SDS011;10231;47.702;9.826;2022-11-10T07:49:29;6.37;;;5.77;;
20140;SDS011;10231;47.702;9.826;2022-11-10T07:51:55;6.00;;;5.40;;
20140;SDS011;10231;47.702;9.826;2022-11-10T07:54:20;6.50;;;5.90;;
20140;SDS011;10231;47.702;9.826;2022-11-10T07:56:47;8.37;;;7.67;;
20140;SDS011;10231;47.702;9.826;2022-11-10T07:59:12;6.07;;;5.57;;
20140;SDS011;10231;47.702;9.826;2022-11-10T08:01:38;4.43;;;4.10;;
20140;SDS011;10231;47.702;9.826;2022-11-10T08:04:04;3.90;;;3.60;;
20140;SDS011;10231;47.702;9.826;2022-11-10T08:06:30;2.97;;;2.77;;
20140;SDS011;10231;47.702;9.826;2022-11-10T08:08:55;2.40;;;2.20;;
20140;SDS011;10231;47.702;9.826;2022-11-10T08:11:21;2.13;;;1.90;;
20140;SDS011;10231;47.702;9.826;2022-11-10T08:13:47;2.20;;;2.00;;
20140;SDS011;10231;47.702;9.826;2022-11-10T08:16:13;2.47;;;2.20;;
20140;SDS011;10231;47.702;9.826;2022-11-10T08:18:39;2.27;;;2.07;;
20140;SDS011;10231;47.702;9.826;2022-11-10T08:21:04;2.47;;;1.90;;
20140;SDS011;10231;47.702;9.826;2022-11-10T08:23:31;1.83;;;1.73;;
20140;SDS011;10231;47.702;9.826;2022-11-10T08:25:57;2.03;;;1.90;;
20140;SDS011;10231;47.702;9.826;2022-11-10T08:28:23;1.80;;;1.70;;
20140;SDS011;10231;47.702;9.826;2022-11-10T08:30:50;2.10;;;2.00;;
20140;SDS011;10231;47.702;9.826;2022-11-10T08:33:16;1.77;;;1.67;;
20140;SDS011;10231;47.702;9.826;2022-11-10T08:35:47;2.60;;;1.90;;
20140;SDS011;10231;47.702;9.826;2022-11-10T08:38:15;1.90;;;1.60;;
20140;SDS011;10231;47.702;9.826;2022-11-10T08:40:42;2.33;;;2.23;;
20140;SDS011;10231;47.702;9.826;2022-11-10T08:43:09;2.00;;;1.87;;
20140;SDS011;10231;47.702;9.826;2022-11-10T08:45:37;2.97;;;2.50;;
20140;SDS011;10231;47.702;9.826;2022-11-10T08:48:05;2.27;;;2.07;;
20140;SDS011;10231;47.702;9.826;2022-11-10T08:50:35;2.80;;;1.70;;
20140;SDS011;10231;47.702;9.826;2022-11-10T08:53:02;2.10;;;1.90;;
20140;SDS011;10231;47.702;9.826;2022-11-10T08:55:29;2.53;;;2.23;;
20140;SDS011;10231;47.702;9.826;2022-11-10T08:57:59;3.47;;;3.07;;
20140;SDS011;10231;47.702;9.826;2022-11-10T09:00:26;4.53;;;3.00;;
20140;SDS011;10231;47.702;9.826;2022-11-10T09:02:53;3.70;;;2.70;;
20140;SDS011;10231;47.702;9.826;2022-11-10T09:05:20;3.20;;;2.73;;
20140;SDS011;10231;47.702;9.826;2022-11-10T09:07:46;3.63;;;2.97;;
20140;SDS011;10231;47.702;9.826;2022-11-10T09:10:13;2.77;;;2.53;;
20140;SDS011;10231;47.702;9.826;2022-11-10T09:12:39;3.90;;;2.60;;
20140;SDS011;10231;47.702;9.826;2022-11-10T09:15:06;6.17;;;2.90;;
20140;SDS011;10231;47.702;9.826;2022-11-10T09:17:32;3.70;;;3.30;;
20140;SDS011;10231;47.702;9.826;2022-11-10T09:19:58;4.93;;;3.70;;
20140;SDS011;10231;47.702;9.826;2022-11-10T09:22:23;5.23;;;3.40;;
20140;SDS011;10231;47.702;9.826;2022-11-10T09:24:49;3.67;;;3.10;;
20140;SDS011;10231;47.702;9.826;2022-11-10T09:27:15;4.17;;;3.13;;
20140;SDS011;10231;47.702;9.826;2022-11-10T09:29:40;3.97;;;2.70;;
20140;SDS011;10231;47.702;9.826;2022-11-10T09:32:06;2.23;;;2.13;;
20140;SDS011;10231;47.702;9.826;2022-11-10T09:34:31;2.77;;;2.40;;
20140;SDS011;10231;47.702;9.826;2022-11-10T09:36:57;2.70;;;2.43;;
20140;SDS011;10231;47.702;9.826;2022-11-10T09:39:22;2.37;;;2.23;;
20140;SDS011;10231;47.702;9.826;2022-11-10T09:41:48;3.70;;;2.07;;
20140;SDS011;10231;47.702;9.826;2022-11-10T09:46:43;3.33;;;2.00;;
20140;SDS011;10231;47.702;9.826;2022-11-10T09:52:08;4.30;;;2.30;;
20140;SDS011;10231;47.702;9.826;2022-11-10T09:54:42;3.97;;;2.13;;
20140;SDS011;10231;47.702;9.826;2022-11-10T09:57:14;2.33;;;2.00;;
20140;SDS011;10231;47.702;9.826;2022-11-10T09:59:42;2.90;;;2.37;;
20140;SDS011;10231;47.702;9.826;2022-11-10T10:07:27;3.70;;;2.67;;
20140;SDS011;10231;47.702;9.826;2022-11-10T10:10:22;3.20;;;2.90;;
20140;SDS011;10231;47.702;9.826;2022-11-10T10:15:43;2.77;;;2.37;;
20140;SDS011;10231;47.702;9.826;2022-11-10T10:18:29;4.10;;;2.87;;
20140;SDS011;10231;47.702;9.826;2022-11-10T10:21:16;2.00;;;1.80;;
20140;SDS011;10231;47.702;9.826;2022-11-10T10:24:01;3.00;;;2.60;;
20140;SDS011;10231;47.702;9.826;2022-11-10T10:26:29;3.00;;;2.10;;
20140;SDS011;10231;47.702;9.826;2022-11-10T10:29:01;2.20;;;1.97;;
20140;SDS011;10231;47.702;9.826;2022-11-10T10:31:34;2.30;;;2.10;;
20140;SDS011;10231;47.702;9.826;2022-11-10T10:34:17;2.13;;;1.90;;
20140;SDS011;10231;47.702;9.826;2022-11-10T10:36:45;2.80;;;2.17;;
20140;SDS011;10231;47.702;9.826;2022-11-10T10:39:15;2.40;;;2.20;;
20140;SDS011;10231;47.702;9.826;2022-11-10T10:41:44;2.80;;;1.90;;
20140;SDS011;10231;47.702;9.826;2022-11-10T10:44:11;2.70;;;2.47;;
20140;SDS011;10231;47.702;9.826;2022-11-10T10:46:42;3.43;;;2.47;;
20140;SDS011;10231;47.702;9.826;2022-11-10T10:49:20;5.47;;;3.03;;
20140;SDS011;10231;47.702;9.826;2022-11-10T10:51:47;3.83;;;2.33;;
20140;SDS011;10231;47.702;9.826;2022-11-10T10:54:21;3.07;;;1.53;;
20140;SDS011;10231;47.702;9.826;2022-11-10T10:56:47;1.53;;;1.23;;
20140;SDS011;10231;47.702;9.826;2022-11-10T10:59:18;1.53;;;1.30;;
20140;SDS011;10231;47.702;9.826;2022-11-10T11:01:46;2.10;;;1.20;;
20140;SDS011;10231;47.702;9.826;2022-11-10T11:07:00;1.10;;;0.90;;
20140;SDS011;10231;47.702;9.826;2022-11-10T11:09:28;3.73;;;1.00;;
20140;SDS011;10231;47.702;9.826;2022-11-10T11:12:05;1.60;;;0.97;;
20140;SDS011;10231;47.702;9.826;2022-11-10T11:14:33;1.43;;;0.60;;
20140;SDS011;10231;47.702;9.826;2022-11-10T11:16:59;1.17;;;0.70;;
20140;SDS011;10231;47.702;9.826;2022-11-10T11:19:34;1.60;;;0.87;;
20140;SDS011;10231;47.702;9.826;2022-11-10T11:33:56;0.87;;;0.80;;
20140;SDS011;10231;47.702;9.826;2022-11-10T11:36:34;3.93;;;1.10;;
20140;SDS011;10231;47.702;9.826;2022-11-10T11:47:36;2.03;;;0.60;;
20140;SDS011;10231;47.702;9.826;2022-11-10T11:53:09;1.27;;;0.80;;
20140;SDS011;10231;47.702;9.826;2022-11-10T12:09:49;2.93;;;0.90;;
20140;SDS011;10231;47.702;9.826;2022-11-10T12:13:05;2.30;;;0.80;;
20140;SDS011;10231;47.702;9.826;2022-11-10T12:18:03;1.43;;;0.80;;
20140;SDS011;10231;47.702;9.826;2022-11-10T12:26:22;2.23;;;0.77;;
20140;SDS011;10231;47.702;9.826;2022-11-10T12:29:14;2.37;;;0.83;;
20140;SDS011;10231;47.702;9.826;2022-11-10T12:31:47;1.50;;;0.73;;
20140;SDS011;10231;47.702;9.826;2022-11-10T12:34:18;2.53;;;0.80;;
20140;SDS011;10231;47.702;9.826;2022-11-10T12:37:11;1.90;;;1.20;;
20140;SDS011;10231;47.702;9.826;2022-11-10T12:42:19;2.33;;;0.90;;
20140;SDS011;10231;47.702;9.826;2022-11-10T12:47:25;1.90;;;0.67;;
20140;SDS011;10231;47.702;9.826;2022-11-10T12:50:08;1.27;;;0.77;;
20140;SDS011;10231;47.702;9.826;2022-11-10T12:53:03;3.23;;;0.80;;
20140;SDS011;10231;47.702;9.826;2022-11-10T12:55:43;1.87;;;0.70;;
20140;SDS011;10231;47.702;9.826;2022-11-10T12:58:12;5.10;;;1.00;;
20140;SDS011;10231;47.702;9.826;2022-11-10T13:01:00;2.23;;;0.90;;
20140;SDS011;10231;47.702;9.826;2022-11-10T13:03:30;2.03;;;0.80;;
20140;SDS011;10231;47.702;9.826;2022-11-10T13:06:01;1.43;;;0.70;;
20140;SDS011;10231;47.702;9.826;2022-11-10T13:08:46;2.73;;;0.80;;
20140;SDS011;10231;47.702;9.826;2022-11-10T13:14:26;0.53;;;0.53;;
20140;SDS011;10231;47.702;9.826;2022-11-10T13:19:08;1.73;;;0.60;;
20140;SDS011;10231;47.702;9.826;2022-11-10T13:24:20;0.40;;;0.40;;
20140;SDS011;10231;47.702;9.826;2022-11-10T13:34:39;0.93;;;0.70;;
20140;SDS011;10231;47.702;9.826;2022-11-10T13:40:36;2.67;;;0.63;;
20140;SDS011;10231;47.702;9.826;2022-11-10T13:45:41;1.70;;;0.40;;
20140;SDS011;10231;47.702;9.826;2022-11-10T13:56:06;1.43;;;0.60;;
20140;SDS011;10231;47.702;9.826;2022-11-10T13:58:48;1.60;;;0.60;;
20140;SDS011;10231;47.702;9.826;2022-11-10T14:06:16;1.20;;;0.67;;
20140;SDS011;10231;47.702;9.826;2022-11-10T14:11:34;0.40;;;0.40;;
20140;SDS011;10231;47.702;9.826;2022-11-10T14:14:17;2.00;;;0.50;;
20140;SDS011;10231;47.702;9.826;2022-11-10T14:16:45;3.27;;;0.47;;
20140;SDS011;10231;47.702;9.826;2022-11-10T14:19:22;0.50;;;0.20;;
20140;SDS011;10231;47.702;9.826;2022-11-10T14:22:19;1.87;;;0.50;;
20140;SDS011;10231;47.702;9.826;2022-11-10T14:25:05;1.33;;;0.40;;
20140;SDS011;10231;47.702;9.826;2022-11-10T14:28:02;3.40;;;0.90;;
20140;SDS011;10231;47.702;9.826;2022-11-10T14:30:41;1.03;;;0.43;;
20140;SDS011;10231;47.702;9.826;2022-11-10T14:33:15;1.37;;;0.50;;
20140;SDS011;10231;47.702;9.826;2022-11-10T14:35:51;1.60;;;0.50;;
20140;SDS011;10231;47.702;9.826;2022-11-10T14:38:30;0.70;;;0.63;;
20140;SDS011;10231;47.702;9.826;2022-11-10T14:40:58;1.27;;;0.90;;
20140;SDS011;10231;47.702;9.826;2022-11-10T14:43:36;2.83;;;0.70;;
20140;SDS011;10231;47.702;9.826;2022-11-10T14:46:03;2.30;;;0.70;;
20140;SDS011;10231;47.702;9.826;2022-11-10T14:48:35;3.40;;;1.10;;
20140;SDS011;10231;47.702;9.826;2022-11-10T14:51:15;1.50;;;0.40;;
20140;SDS011;10231;47.702;9.826;2022-11-10T14:53:46;1.60;;;0.70;;
20140;SDS011;10231;47.702;9.826;2022-11-10T14:56:47;1.50;;;0.77;;
20140;SDS011;10231;47.702;9.826;2022-11-10T14:59:06;1.90;;;0.70;;
20140;SDS011;10231;47.702;9.826;2022-11-10T15:01:37;1.23;;;0.50;;
20140;SDS011;10231;47.702;9.826;2022-11-10T15:04:05;1.63;;;0.43;;
20140;SDS011;10231;47.702;9.826;2022-11-10T15:06:32;1.00;;;1.00;;
20140;SDS011;10231;47.702;9.826;2022-11-10T15:08:58;2.40;;;0.63;;
20140;SDS011;10231;47.702;9.826;2022-11-10T15:11:37;2.77;;;0.80;;
20140;SDS011;10231;47.702;9.826;2022-11-10T15:14:27;2.83;;;0.80;;
20140;SDS011;10231;47.702;9.826;2022-11-10T15:17:02;1.73;;;0.70;;
20140;SDS011;10231;47.702;9.826;2022-11-10T15:19:48;1.43;;;0.70;;
20140;SDS011;10231;47.702;9.826;2022-11-10T15:22:19;2.47;;;0.80;;
20140;SDS011;10231;47.702;9.826;2022-11-10T15:25:15;2.07;;;0.60;;
20140;SDS011;10231;47.702;9.826;2022-11-10T15:27:52;0.60;;;0.60;;
20140;SDS011;10231;47.702;9.826;2022-11-10T15:30:22;1.63;;;0.63;;
20140;SDS011;10231;47.702;9.826;2022-11-10T15:32:50;1.03;;;0.93;;
20140;SDS011;10231;47.702;9.826;2022-11-10T15:40:34;1.20;;;0.70;;
20140;SDS011;10231;47.702;9.826;2022-11-10T15:45:51;0.97;;;0.90;;
20140;SDS011;10231;47.702;9.826;2022-11-10T15:48:37;5.73;;;1.03;;
20140;SDS011;10231;47.702;9.826;2022-11-10T15:51:08;1.40;;;0.67;;
20140;SDS011;10231;47.702;9.826;2022-11-10T15:53:39;1.43;;;0.50;;
20140;SDS011;10231;47.702;9.826;2022-11-10T15:56:07;2.90;;;0.83;;
20140;SDS011;10231;47.702;9.826;2022-11-10T15:58:38;1.83;;;0.57;;
20140;SDS011;10231;47.702;9.826;2022-11-10T16:01:04;2.23;;;0.77;;
20140;SDS011;10231;47.702;9.826;2022-11-10T16:03:29;3.03;;;0.90;;
20140;SDS011;10231;47.702;9.826;2022-11-10T16:05:55;2.97;;;1.03;;
20140;SDS011;10231;47.702;9.826;2022-11-10T16:08:22;3.17;;;0.77;;
20140;SDS011;10231;47.702;9.826;2022-11-10T16:10:48;2.20;;;0.77;;
20140;SDS011;10231;47.702;9.826;2022-11-10T16:13:17;2.03;;;1.00;;
20140;SDS011;10231;47.702;9.826;2022-11-10T16:15:55;3.10;;;1.50;;
20140;SDS011;10231;47.702;9.826;2022-11-10T16:18:25;1.20;;;1.10;;
20140;SDS011;10231;47.702;9.826;2022-11-10T16:20:52;1.47;;;1.07;;
20140;SDS011;10231;47.702;9.826;2022-11-10T16:23:18;1.20;;;1.10;;
20140;SDS011;10231;47.702;9.826;2022-11-10T16:25:44;2.00;;;1.10;;
20140;SDS011;10231;47.702;9.826;2022-11-10T16:28:14;3.67;;;1.60;;
20140;SDS011;10231;47.702;9.826;2022-11-10T16:30:45;4.60;;;1.93;;
20140;SDS011;10231;47.702;9.826;2022-11-10T16:33:15;2.60;;;1.73;;
20140;SDS011;10231;47.702;9.826;2022-11-10T16:35:42;5.87;;;5.27;;
20140;SDS011;10231;47.702;9.826;2022-11-10T16:38:13;7.77;;;6.83;;
20140;SDS011;10231;47.702;9.826;2022-11-10T16:40:44;7.73;;;5.90;;
20140;SDS011;10231;47.702;9.826;2022-11-10T16:43:16;4.90;;;3.70;;
20140;SDS011;10231;47.702;9.826;2022-11-10T16:45:42;2.80;;;1.83;;
20140;SDS011;10231;47.702;9.826;2022-11-10T16:48:10;5.00;;;1.90;;
20140;SDS011;10231;47.702;9.826;2022-11-10T16:50:39;3.73;;;2.10;;
20140;SDS011;10231;47.702;9.826;2022-11-10T16:53:09;4.50;;;1.70;;